Sun Peaks, Canada
Current Conditions -  °F | °C
As of 4:00 AM on Thursday 29 Jan 2015 (Local Time) from CYKA Reporting Station
Overcast Overcast  
Wind Chill: 36°   Ceiling: 1700
Heat Index: 36°   Visibility: 15mi
Dew Point: 28°   Wind: 2mph
Humidity: 75%   Direction: 360°N
Pressure: 30.45"   Gusts: NA
Location:  50.88°N, 119.92°W
Report Text: CYKA 291200Z 36002KT 15SM OVC017 02/M02 A3045 RMK SC8 SLP329
Loading
Personal Weather Stations






























Interactive Weather Map New forecast layout! Learn more

10-Day Weather Forecast

Advertisements
Track Severe Weather on mobile